createdAt,value
2019-02-05T00:00:00.616Z,84.8
2019-02-05T00:01:00.527Z,85.4
2019-02-05T00:02:00.448Z,84.5
2019-02-05T00:10:00.575Z,84
2019-02-05T00:11:00.488Z,84.9
2019-02-05T00:12:00.535Z,85.5
2019-02-05T00:13:00.763Z,85.8
2019-02-05T00:14:01.781Z,86
2019-02-05T00:15:01.711Z,86.1
2019-02-05T00:16:01.656Z,85.8
2019-02-05T00:17:01.688Z,86.5
2019-02-05T00:18:01.609Z,86.8
2019-02-05T00:19:01.548Z,86
2019-02-05T00:20:02.121Z,85.5
2019-02-05T00:21:02.520Z,85.1
2019-02-05T00:22:02.686Z,84.7
2019-02-05T00:23:02.592Z,85.1
2019-02-05T00:24:02.520Z,85.5
2019-02-05T00:25:02.482Z,85.2
2019-02-05T00:26:07.209Z,85.6
2019-02-05T00:27:07.147Z,85.7
2019-02-05T00:28:07.069Z,86.1
2019-02-05T00:29:07.750Z,86.4
2019-02-05T00:30:09.201Z,86.4
2019-02-05T00:31:09.140Z,86.9
2019-02-05T00:32:09.067Z,86.9
2019-02-05T00:33:09.113Z,86.9
2019-02-05T00:34:09.027Z,87.1
2019-02-05T00:35:08.981Z,86.6
2019-02-05T00:36:08.894Z,86.6
2019-02-05T00:37:09.774Z,86.9
2019-02-05T00:38:10.345Z,86.7
2019-02-05T00:39:10.268Z,86.4
2019-02-05T00:40:10.716Z,86.1
2019-02-05T00:41:10.678Z,85
2019-02-05T00:42:10.616Z,85.9
2019-02-05T00:43:10.550Z,86.8
2019-02-05T00:44:10.510Z,87.2
2019-02-05T00:45:11.493Z,86.6
2019-02-05T00:46:12.360Z,85.6
2019-02-05T00:47:12.282Z,84.6
2019-02-05T00:48:12.215Z,85.4
2019-02-05T00:49:12.134Z,86.3
2019-02-05T00:50:12.541Z,86.6
2019-02-05T00:51:12.470Z,85
2019-02-05T00:52:12.376Z,84.8
2019-02-05T00:53:13.192Z,85.5
2019-02-05T00:54:14.090Z,85.7
2019-02-05T00:55:14.011Z,85.2
2019-02-05T00:56:18.489Z,84.8
2019-02-05T00:57:18.403Z,84.2
2019-02-05T00:58:18.326Z,85.4
2019-02-05T00:59:18.249Z,86
2019-02-05T01:00:18.612Z,85.6
2019-02-05T01:01:19.008Z,85.1
2019-02-05T01:02:18.924Z,84.7
2019-02-05T01:03:18.856Z,84.2
2019-02-05T01:04:18.769Z,84.3
2019-02-05T01:05:18.793Z,84.5
2019-02-05T01:06:18.718Z,84.6
2019-02-05T01:07:18.656Z,84.5
2019-02-05T01:08:18.576Z,84
2019-02-05T01:09:19.250Z,83.8
2019-02-05T01:10:20.418Z,86.6
2019-02-05T01:11:20.328Z,85.4
2019-02-05T01:12:20.276Z,85.5
2019-02-05T01:13:20.232Z,85.8
2019-02-05T01:14:20.269Z,86.9
2019-02-05T01:15:20.184Z,86
2019-02-05T01:16:20.104Z,85.7
2019-02-05T01:17:20.847Z,86.3
2019-02-05T01:18:21.654Z,85.1
2019-02-05T01:19:21.588Z,85.6
2019-02-05T01:20:21.949Z,87.1
2019-02-05T01:21:21.894Z,87.4
2019-02-05T01:22:21.830Z,87.3
2019-02-05T01:23:21.751Z,87.4
2019-02-05T01:24:21.666Z,88.5
2019-02-05T01:25:22.508Z,89.1
2019-02-05T01:26:32.398Z,88.9
2019-02-05T01:27:32.576Z,89.7
2019-02-05T01:28:32.482Z,89.7
2019-02-05T01:29:32.420Z,89.5
2019-02-05T01:30:32.816Z,89.1
2019-02-05T01:31:32.736Z,89.6
2019-02-05T01:32:32.666Z,89.5
2019-02-05T01:33:32.584Z,88.9
2019-02-05T01:34:33.075Z,88.8
2019-02-05T01:35:33.462Z,88.9
2019-02-05T01:36:33.504Z,89.1
2019-02-05T01:37:33.443Z,89
2019-02-05T01:38:33.359Z,89
2019-02-05T01:39:33.277Z,88.7
2019-02-05T01:40:33.664Z,88.7
2019-02-05T01:41:33.735Z,88.5
2019-02-05T01:42:34.429Z,88.5
2019-02-05T01:43:34.955Z,89.1
2019-02-05T01:44:34.879Z,88.3
2019-02-05T01:45:34.804Z,88.2
2019-02-05T01:46:34.703Z,87.8
2019-02-05T01:47:34.616Z,88.1
2019-02-05T01:48:34.538Z,87.7
2019-02-05T01:49:34.466Z,87.8
2019-02-05T01:50:35.800Z,87.6
2019-02-05T01:51:36.597Z,87.5
2019-02-05T01:52:36.526Z,87
2019-02-05T01:53:36.456Z,87.5
2019-02-05T01:54:36.380Z,87.1
2019-02-05T01:55:36.287Z,87.2
2019-02-05T01:56:41.581Z,87.7
2019-02-05T01:57:41.519Z,88
2019-02-05T01:58:41.400Z,87.4
2019-02-05T01:59:41.320Z,87.6
2019-02-05T02:00:41.685Z,87.5
2019-02-05T02:01:41.607Z,87.2
2019-02-05T02:02:41.541Z,86.9
2019-02-05T02:03:41.499Z,87.3
2019-02-05T02:04:41.429Z,87.5
2019-02-05T02:05:41.346Z,87.3
2019-02-05T02:06:41.981Z,86.9
2019-02-05T02:07:42.360Z,87.2
2019-02-05T02:08:42.269Z,87
2019-02-05T02:09:42.177Z,87.7
2019-02-05T02:10:42.551Z,87.4
2019-02-05T02:11:42.487Z,86.5
2019-02-05T02:30:52.253Z,80.8
2019-02-05T02:31:52.193Z,81.4
2019-02-05T02:32:52.155Z,81.5
2019-02-05T02:33:52.226Z,81.9
2019-02-05T02:34:52.265Z,82.1
2019-02-05T02:35:52.260Z,82.9
2019-02-05T02:36:52.218Z,83.1
2019-02-05T02:37:52.183Z,83.8
2019-02-05T02:38:52.959Z,83.4
2019-02-05T02:39:53.533Z,83.8
2019-02-05T02:40:53.949Z,83.9
2019-02-05T02:41:53.873Z,84
2019-02-05T02:50:53.397Z,81.2
2019-02-05T02:51:53.325Z,81.9
2019-02-05T02:52:53.267Z,82.1
2019-02-05T02:53:53.215Z,82.1
2019-02-05T02:54:56.203Z,82
2019-02-05T02:55:56.765Z,82
2019-02-05T02:57:05.636Z,82.1
2019-02-05T02:58:05.705Z,82.9
2019-02-05T02:59:05.681Z,82.5
2019-02-05T03:00:05.649Z,83.2
2019-02-05T03:01:06.148Z,83.3
2019-02-05T03:02:06.096Z,83.5
2019-02-05T03:03:06.067Z,84
2019-02-05T03:04:06.711Z,83.3
2019-02-05T03:05:07.635Z,83.7
2019-02-05T03:06:07.629Z,84
2019-02-05T03:07:07.610Z,83.6
2019-02-05T03:08:07.573Z,83.9
2019-02-05T03:09:07.523Z,83.7
2019-02-05T03:10:07.492Z,83.7
2019-02-05T03:11:08.740Z,83.5
2019-02-05T03:12:08.987Z,83.7
2019-02-05T03:13:08.950Z,83.8
2019-02-05T03:14:08.909Z,84
2019-02-05T03:15:08.904Z,84.5
2019-02-05T03:16:08.879Z,85
2019-02-05T03:17:08.914Z,84.9
2019-02-05T03:18:09.038Z,84.5
2019-02-05T03:19:09.030Z,84.2
2019-02-05T03:20:09.016Z,83.8
2019-02-05T03:21:09.547Z,84.9
2019-02-05T03:22:09.535Z,85.2
2019-02-05T03:23:09.527Z,85.4
2019-02-05T03:24:09.515Z,84.8
2019-02-05T03:25:09.468Z,84.3
2019-02-05T03:26:09.454Z,84.4
2019-02-05T03:27:19.095Z,83.7
2019-02-05T03:28:19.073Z,83
2019-02-05T03:29:19.025Z,82.5
2019-02-05T03:30:19.024Z,82.5
2019-02-05T03:31:24.324Z,82.4
2019-02-05T03:32:24.329Z,82
2019-02-05T03:33:24.611Z,81.9
2019-02-05T03:34:24.621Z,81.8
2019-02-05T03:35:24.600Z,82.3
2019-02-05T03:36:24.584Z,82.4
2019-02-05T03:37:24.556Z,82.4
2019-02-05T03:38:24.547Z,82.5
2019-02-05T03:39:24.497Z,83.4
2019-02-05T03:40:24.637Z,83.2
2019-02-05T03:41:25.096Z,83.8
2019-02-05T03:42:25.873Z,85.6
2019-02-05T03:43:26.671Z,85.7
2019-02-05T03:44:26.674Z,86.4
2019-02-05T03:45:26.635Z,86.7
2019-02-05T03:46:26.590Z,86.2
2019-02-05T03:47:26.557Z,86.3
2019-02-05T03:48:26.542Z,86.6
2019-02-05T03:49:27.115Z,86.9
2019-02-05T03:50:27.669Z,87
2019-02-05T03:51:28.129Z,87
2019-02-05T03:52:28.112Z,86.7
2019-02-05T03:53:28.098Z,86.7
2019-02-05T03:54:28.037Z,86.5
2019-02-05T03:55:28.027Z,86.8
2019-02-05T03:56:28.043Z,86.4
2019-02-05T03:57:32.908Z,86.6
2019-02-05T03:58:32.849Z,86.5
2019-02-05T03:59:32.805Z,86.6
2019-02-05T04:00:32.873Z,86.5
2019-02-05T04:01:33.318Z,86.7
2019-02-05T04:02:33.309Z,86.5
2019-02-05T04:03:33.255Z,86.7
2019-02-05T04:04:33.234Z,86.3
2019-02-05T04:05:34.194Z,86.4
2019-02-05T04:06:34.606Z,86.5
2019-02-05T04:07:34.580Z,86.6
2019-02-05T04:08:34.537Z,86.9
2019-02-05T04:09:34.511Z,87
2019-02-05T04:10:34.469Z,87
2019-02-05T04:11:34.974Z,87.1
2019-02-05T04:12:34.947Z,87.1
2019-02-05T04:13:35.670Z,87
2019-02-05T04:14:36.293Z,87.3
2019-02-05T04:15:36.273Z,87
2019-02-05T04:16:36.237Z,86.8
2019-02-05T04:17:36.206Z,86.9
2019-02-05T04:18:36.170Z,87.1
2019-02-05T04:19:36.152Z,86.9
2019-02-05T04:20:36.156Z,87
2019-02-05T04:21:37.515Z,87.3
2019-02-05T04:22:38.148Z,87.2
2019-02-05T04:23:38.146Z,87.8
2019-02-05T04:24:38.100Z,87.5
2019-02-05T04:25:38.062Z,87.7
2019-02-05T04:26:38.119Z,87.6
2019-02-05T04:27:48.017Z,87.8
2019-02-05T04:28:47.988Z,87.9
2019-02-05T04:29:47.957Z,87.9
2019-02-05T04:30:48.846Z,88.1
2019-02-05T04:31:50.540Z,88.1
2019-02-05T04:32:50.519Z,87.8
2019-02-05T04:33:50.498Z,87.9
2019-02-05T04:34:50.433Z,87.8
2019-02-05T04:35:50.393Z,87.9
2019-02-05T04:36:50.361Z,87.8
2019-02-05T04:37:50.340Z,87.9
2019-02-05T04:38:51.297Z,88
2019-02-05T04:39:52.258Z,87.9
2019-02-05T04:40:52.210Z,88.2
2019-02-05T04:41:52.678Z,87.8
2019-02-05T04:42:52.640Z,87.8
2019-02-05T04:43:52.618Z,87.3
2019-02-05T04:44:52.598Z,87.6
2019-02-05T04:45:52.564Z,87.8
2019-02-05T04:46:53.432Z,87.2
2019-02-05T04:47:54.278Z,87.2
2019-02-05T04:48:54.229Z,87.4
2019-02-05T04:49:54.344Z,87.3
2019-02-05T04:50:54.308Z,86.9
2019-02-05T04:51:54.733Z,87.1
2019-02-05T04:52:54.696Z,87.1
2019-02-05T04:53:54.722Z,87.1
2019-02-05T04:54:55.431Z,87.4
2019-02-05T04:55:56.238Z,87.3
2019-02-05T04:56:56.204Z,86.9
2019-02-05T04:58:01.993Z,86.8
2019-02-05T04:59:01.978Z,86.7
2019-02-05T05:00:01.985Z,87.2
2019-02-05T05:01:01.929Z,86.6
2019-02-05T05:02:02.404Z,86.9
2019-02-05T05:03:03.220Z,86.9
2019-02-05T05:04:03.927Z,86.7
2019-02-05T05:05:03.892Z,86.6
2019-02-05T05:06:03.836Z,86.7
2019-02-05T05:07:03.804Z,86.4
2019-02-05T05:08:03.762Z,86.7
2019-02-05T05:09:03.698Z,86.5
2019-02-05T05:10:03.634Z,87
2019-02-05T05:11:04.544Z,87.1
2019-02-05T05:12:06.111Z,86.9
2019-02-05T05:13:06.099Z,86.9
2019-02-05T05:14:06.054Z,86.7
2019-02-05T05:15:06.013Z,87
2019-02-05T05:16:05.964Z,86.9
2019-02-05T05:17:05.906Z,86.7
2019-02-05T05:18:05.864Z,86.7
2019-02-05T05:19:05.847Z,86.9
2019-02-05T05:20:06.601Z,86.9
2019-02-05T05:21:06.609Z,87.1
2019-02-05T05:22:07.094Z,87.5
2019-02-05T05:23:07.048Z,87
2019-02-05T05:24:07.006Z,87
2019-02-05T05:25:06.986Z,87.1
2019-02-05T05:26:07.648Z,86.8
2019-02-05T05:27:08.244Z,87
2019-02-05T05:28:11.120Z,87.2
2019-02-05T05:29:11.089Z,86.9
2019-02-05T05:30:11.049Z,86.7
2019-02-05T05:31:11.044Z,87.2
2019-02-05T05:32:11.490Z,87.3
2019-02-05T05:33:11.444Z,86.6
2019-02-05T05:34:12.405Z,86.9
2019-02-05T05:35:12.872Z,86.5
2019-02-05T05:36:12.832Z,86.5
2019-02-05T05:37:12.798Z,86.5
2019-02-05T05:38:12.764Z,86.4
2019-02-05T05:39:12.711Z,86.2
2019-02-05T05:40:12.684Z,86.5
2019-02-05T05:41:12.654Z,86.3
2019-02-05T05:42:14.057Z,86.3
2019-02-05T05:43:14.993Z,86.4
2019-02-05T05:44:14.976Z,86.1
2019-02-05T05:45:14.968Z,86
2019-02-05T05:46:14.948Z,86
2019-02-05T05:47:14.984Z,86
2019-02-05T05:48:14.975Z,85.7
2019-02-05T05:49:15.574Z,85.4
2019-02-05T05:50:15.737Z,85.4
2019-02-05T05:51:15.713Z,85.7
2019-02-05T05:52:16.186Z,85.5
2019-02-05T05:53:16.143Z,85.7
2019-02-05T05:54:16.131Z,85.6
2019-02-05T05:55:16.105Z,85.7
2019-02-05T05:56:16.148Z,85.6
2019-02-05T05:57:20.145Z,85.7
2019-02-05T05:58:24.758Z,86.2
2019-02-05T05:59:25.654Z,86.3
2019-02-05T06:00:25.651Z,86.2
2019-02-05T06:01:25.600Z,86.2
2019-02-05T06:02:27.152Z,86.5
2019-02-05T06:03:27.084Z,86.6
2019-02-05T06:04:27.060Z,86.8
2019-02-05T06:05:27.345Z,86.6
2019-02-05T06:06:27.317Z,86.6
2019-02-05T06:07:27.301Z,86.7
2019-02-05T06:08:27.333Z,86.5
2019-02-05T06:09:27.430Z,86.6
2019-02-05T06:10:27.407Z,86.7
2019-02-05T06:11:27.361Z,86.4
2019-02-05T06:12:27.850Z,86.3
2019-02-05T06:13:28.889Z,85.9
2019-02-05T06:14:29.697Z,85.9
2019-02-05T06:15:29.677Z,86.2
2019-02-05T06:16:29.645Z,86
2019-02-05T06:17:29.615Z,85.9
2019-02-05T06:18:29.609Z,85.6
2019-02-05T06:19:29.563Z,85.8
2019-02-05T06:20:29.525Z,85.8
2019-02-05T06:21:29.509Z,85.9
2019-02-05T06:22:30.705Z,86
2019-02-05T06:23:30.647Z,86
2019-02-05T06:24:30.607Z,85.9
2019-02-05T06:25:30.575Z,85.7
2019-02-05T06:26:30.529Z,85.9
2019-02-05T06:27:30.509Z,86.1
2019-02-05T06:28:35.599Z,86.1
2019-02-05T06:29:36.497Z,86.3
2019-02-05T06:30:37.454Z,86.2
2019-02-05T06:31:37.412Z,86.2
2019-02-05T06:32:37.837Z,86.5
2019-02-05T06:33:37.825Z,86.7
2019-02-05T06:34:37.785Z,87
2019-02-05T06:35:37.733Z,87.1
2019-02-05T06:36:37.703Z,87
2019-02-05T06:37:37.791Z,87.1
2019-02-05T06:38:37.781Z,87.4
2019-02-05T06:39:37.741Z,87.2
2019-02-05T06:40:37.703Z,87.4
2019-02-05T06:41:37.770Z,87.3
2019-02-05T06:42:38.223Z,87.3
2019-02-05T06:43:38.212Z,87.3
2019-02-05T06:44:38.847Z,87
2019-02-05T06:45:42.321Z,87.2
2019-02-05T06:46:42.269Z,86.9
2019-02-05T06:47:42.231Z,86.9
2019-02-05T06:48:42.213Z,86.6
2019-02-05T06:49:42.291Z,86.6
2019-02-05T06:50:42.239Z,86.3
2019-02-05T06:51:42.207Z,86.3
2019-02-05T06:52:43.618Z,86.4
2019-02-05T06:53:44.367Z,86.1
2019-02-05T06:54:44.336Z,86.1
2019-02-05T06:55:44.301Z,86
2019-02-05T06:56:44.246Z,85.8
2019-02-05T06:57:44.255Z,85.6
2019-02-05T06:58:47.341Z,86
2019-02-05T06:59:47.286Z,85.8
2019-02-05T07:00:48.220Z,85.9
2019-02-05T07:01:49.047Z,85.8
2019-02-05T07:02:49.472Z,85.6
2019-02-05T07:03:52.767Z,85.5
2019-02-05T07:04:52.725Z,85.3
2019-02-05T07:05:52.654Z,85.4
2019-02-05T07:06:52.605Z,85.1
2019-02-05T07:07:52.667Z,85
2019-02-05T07:08:53.654Z,85.1
2019-02-05T07:09:54.365Z,85.2
2019-02-05T07:10:54.338Z,85.5
2019-02-05T07:11:54.329Z,85.4
2019-02-05T07:12:54.842Z,85.1
2019-02-05T07:13:54.796Z,85
2019-02-05T07:14:57.990Z,85.1
2019-02-05T07:15:57.955Z,84.8
2019-02-05T07:16:58.801Z,85.1
2019-02-05T07:17:59.585Z,85.1
2019-02-05T07:18:59.555Z,85.2
2019-02-05T07:19:59.501Z,85.1
2019-02-05T07:20:59.459Z,85
2019-02-05T07:21:59.424Z,84.9
2019-02-05T07:22:59.970Z,85
2019-02-05T07:24:00.039Z,84.8
2019-02-05T07:25:00.475Z,85
2019-02-05T07:26:01.531Z,84.9
2019-02-05T07:27:01.549Z,84.7
2019-02-05T07:28:01.555Z,84.5
2019-02-05T07:29:02.924Z,84.7
2019-02-05T07:30:02.894Z,84.9
2019-02-05T07:31:02.842Z,85.1
2019-02-05T07:32:03.380Z,85.1
2019-02-05T07:33:03.960Z,85
2019-02-05T07:34:04.054Z,84.9
2019-02-05T07:35:04.070Z,84.7
2019-02-05T07:36:04.076Z,84.6
2019-02-05T07:37:04.128Z,84.6
2019-02-05T07:38:04.178Z,84.5
2019-02-05T07:39:04.224Z,84.4
2019-02-05T07:40:04.280Z,84.6
2019-02-05T07:41:04.306Z,84.8
2019-02-05T07:42:04.330Z,84.5
2019-02-05T07:43:04.892Z,84.6
2019-02-05T07:44:04.949Z,84.4
2019-02-05T07:45:04.956Z,84.3
2019-02-05T07:46:04.963Z,84
2019-02-05T07:47:04.956Z,84.1
2019-02-05T07:48:05.407Z,84.3
2019-02-05T07:49:05.394Z,84.1
2019-02-05T07:50:05.481Z,84
2019-02-05T07:51:05.500Z,84
2019-02-05T07:52:05.504Z,83.8
2019-02-05T07:53:06.026Z,83.7
2019-02-05T07:54:06.990Z,83.9
2019-02-05T07:55:07.623Z,83.8
2019-02-05T07:56:07.642Z,83.5
2019-02-05T07:57:07.607Z,83.8
2019-02-05T07:58:07.606Z,83.9
2019-02-05T07:59:11.239Z,84.1
2019-02-05T08:00:11.256Z,84.3
2019-02-05T08:01:11.238Z,83.6
2019-02-05T08:02:12.240Z,83.4
2019-02-05T08:03:13.939Z,83.1
2019-02-05T08:04:13.943Z,83.1
2019-02-05T08:05:13.981Z,82.5
2019-02-05T08:06:13.959Z,81.6
2019-02-05T08:07:14.000Z,81.6
2019-02-05T08:08:13.996Z,81.4
2019-02-05T08:09:14.551Z,81
2019-02-05T08:10:14.918Z,81
2019-02-05T08:11:14.992Z,80.6
2019-02-05T08:12:15.023Z,80.3
2019-02-05T08:13:15.702Z,79.8
2019-02-05T08:14:15.730Z,79.5
2019-02-05T08:15:15.857Z,79
2019-02-05T08:18:16.836Z,77.5
2019-02-05T08:23:17.418Z,75.7
2019-02-05T08:24:17.804Z,76.2
2019-02-05T08:25:17.852Z,75.4
2019-02-05T08:26:17.979Z,74.5
2019-02-05T08:27:17.974Z,74.3
2019-02-05T08:28:17.964Z,74.4
2019-02-05T08:29:22.552Z,75.6
2019-02-05T08:30:22.526Z,74.3
2019-02-05T08:31:23.048Z,75.1
2019-02-05T08:32:23.232Z,73.9
2019-02-05T08:33:23.714Z,73.9
2019-02-05T08:34:23.818Z,74.4
2019-02-05T08:35:23.950Z,74.5
2019-02-05T08:36:24.001Z,73.3
2019-02-05T08:37:24.015Z,73.5
2019-02-05T08:38:23.991Z,74
2019-02-05T08:39:24.899Z,73.1
2019-02-05T08:40:25.938Z,73.2
2019-02-05T08:41:25.942Z,73.4
2019-02-05T08:42:25.933Z,75
2019-02-05T08:43:27.450Z,74.5
2019-02-05T08:44:27.432Z,74.8
2019-02-05T08:45:27.451Z,74.1
2019-02-05T08:46:27.684Z,74.4
2019-02-05T08:47:27.659Z,73.5
2019-02-05T08:48:27.688Z,74.4
2019-02-05T08:49:27.713Z,73.2
2019-02-05T08:50:28.363Z,72.9
2019-02-05T08:51:28.448Z,73
2019-02-05T08:52:28.441Z,73.3
2019-02-05T08:53:28.993Z,73.4
2019-02-05T08:54:29.886Z,72
2019-02-05T08:55:31.697Z,73.5
2019-02-05T08:56:31.755Z,73.8
2019-02-05T08:57:31.731Z,72.6
2019-02-05T08:58:32.184Z,71.9
2019-02-05T08:59:32.161Z,70.9
2019-02-05T09:00:32.137Z,70.3
2019-02-05T09:01:32.129Z,71.4
2019-02-05T09:02:32.133Z,70.4
2019-02-05T09:03:32.727Z,70.6
2019-02-05T09:04:32.768Z,72.2
2019-02-05T09:05:32.834Z,71.8
2019-02-05T09:06:36.170Z,70.7
2019-02-05T09:07:36.159Z,68.5
2019-02-05T09:08:36.151Z,69
2019-02-05T09:09:36.767Z,70.1
2019-02-05T09:10:37.230Z,70
2019-02-05T09:11:37.268Z,69.6
2019-02-05T09:12:37.253Z,69.2
2019-02-05T09:13:37.764Z,69.9
2019-02-05T09:14:37.733Z,69.8
2019-02-05T09:15:37.732Z,69.9
2019-02-05T09:16:37.744Z,69
2019-02-05T09:17:38.667Z,69.2
2019-02-05T09:18:39.489Z,70.3
2019-02-05T09:19:39.481Z,68.6
2019-02-05T09:20:39.470Z,70.1
2019-02-05T09:21:39.549Z,70.5
2019-02-05T09:22:39.541Z,70.6
2019-02-05T09:23:40.026Z,70.8
2019-02-05T09:24:40.427Z,71
2019-02-05T09:25:40.407Z,70.9
2019-02-05T09:26:40.439Z,70
2019-02-05T09:27:40.455Z,70.3
2019-02-05T09:28:40.553Z,70.4
2019-02-05T09:29:40.541Z,71
2019-02-05T09:30:40.565Z,71.1
2019-02-05T09:31:40.644Z,71.2
2019-02-05T09:32:41.495Z,71
2019-02-05T09:33:43.079Z,71.8
2019-02-05T09:34:43.061Z,71.4
2019-02-05T09:35:43.191Z,70.8
2019-02-05T09:36:43.207Z,71.2
2019-02-05T09:37:43.215Z,71.1
2019-02-05T09:38:43.253Z,71.9
2019-02-05T09:39:43.251Z,71
2019-02-05T09:40:43.231Z,71.1
2019-02-05T09:41:43.253Z,72.4
2019-02-05T09:42:43.273Z,71.6
2019-02-05T09:43:43.822Z,72.1
2019-02-05T09:44:43.853Z,72.2
2019-02-05T09:45:43.851Z,71.6
2019-02-05T09:46:43.839Z,71.4
2019-02-05T09:47:44.787Z,70.8
2019-02-05T09:48:45.728Z,72.2
2019-02-05T09:49:45.751Z,73
2019-02-05T09:50:46.124Z,72.2
2019-02-05T09:51:46.170Z,72.3
2019-02-05T09:52:46.226Z,72.4
2019-02-05T09:53:46.717Z,72.7
2019-02-05T09:54:46.731Z,72.5
2019-02-05T09:55:46.719Z,73
2019-02-05T09:56:46.899Z,73.3
2019-02-05T09:57:46.901Z,72.5
2019-02-05T09:58:46.960Z,72.9
2019-02-05T09:59:46.998Z,73.7
2019-02-05T10:00:47.004Z,73.5
2019-02-05T10:01:47.003Z,73.2
2019-02-05T10:02:47.949Z,72.6
2019-02-05T10:03:49.673Z,73.6
2019-02-05T10:04:49.685Z,73.8
2019-02-05T10:05:49.780Z,75
2019-02-05T10:06:50.924Z,74.2
2019-02-05T10:07:50.930Z,73.1
2019-02-05T10:08:50.925Z,74.2
2019-02-05T10:09:50.967Z,74
2019-02-05T10:10:51.763Z,74.3
2019-02-05T10:11:52.681Z,74.4
2019-02-05T10:12:52.749Z,73.7
2019-02-05T10:13:53.439Z,73.4
2019-02-05T10:14:53.424Z,73.6
2019-02-05T10:15:53.405Z,73.6
2019-02-05T10:16:53.403Z,74
2019-02-05T10:17:54.260Z,74
2019-02-05T10:18:55.087Z,73.9
2019-02-05T10:19:55.075Z,73.1
2019-02-05T10:20:55.062Z,73
2019-02-05T10:21:55.056Z,73.1
2019-02-05T10:22:55.042Z,73.1
2019-02-05T10:23:55.538Z,73.3
2019-02-05T10:24:55.583Z,73.1
2019-02-05T10:25:56.555Z,73.4
2019-02-05T10:26:57.476Z,72.7
2019-02-05T10:27:57.497Z,72.9
2019-02-05T10:28:57.609Z,72.3
2019-02-05T10:30:00.351Z,73
2019-02-05T10:31:00.335Z,73.1
2019-02-05T10:32:00.323Z,73.4
2019-02-05T10:33:00.328Z,73.4
2019-02-05T10:34:01.626Z,74.2
2019-02-05T10:35:02.349Z,74.5
2019-02-05T10:36:02.388Z,74.5
2019-02-05T10:37:02.450Z,74.1
2019-02-05T10:38:02.457Z,73.9
2019-02-05T10:39:02.448Z,74.1
2019-02-05T10:40:02.511Z,74.1
2019-02-05T10:41:02.664Z,74.8
2019-02-05T10:42:02.644Z,74.4
2019-02-05T10:43:02.710Z,74.1
2019-02-05T10:44:03.379Z,73.8
2019-02-05T10:45:03.414Z,73.5
2019-02-05T10:46:03.418Z,72.7
2019-02-05T10:47:03.404Z,72.4
2019-02-05T10:48:03.456Z,71.9
2019-02-05T10:49:04.964Z,70.7
2019-02-05T10:50:05.616Z,72.2
2019-02-05T10:51:05.614Z,72.6
2019-02-05T10:52:05.588Z,73.6
2019-02-05T10:53:05.587Z,73.5
2019-02-05T10:54:06.150Z,73.2
2019-02-05T10:55:06.152Z,72.7
2019-02-05T10:56:06.127Z,72.7
2019-02-05T10:57:06.190Z,73.6
2019-02-05T10:58:06.748Z,72.5
2019-02-05T10:59:06.720Z,72.6
2019-02-05T11:00:09.994Z,73
2019-02-05T11:01:10.022Z,73.2
2019-02-05T11:02:10.080Z,73
2019-02-05T11:03:10.204Z,73.4
2019-02-05T11:04:10.855Z,73.4
2019-02-05T11:05:10.849Z,74
2019-02-05T11:06:10.850Z,73
2019-02-05T11:07:10.820Z,72.7
2019-02-05T11:08:10.799Z,73.1
2019-02-05T11:09:10.884Z,72.3
2019-02-05T11:10:10.854Z,71.4
2019-02-05T11:11:10.863Z,72
2019-02-05T11:12:11.759Z,72.7
2019-02-05T11:13:12.591Z,72.8
2019-02-05T11:14:13.093Z,72.4
2019-02-05T11:15:13.094Z,72.3
2019-02-05T11:16:13.123Z,71.1
2019-02-05T11:17:13.108Z,70.7
2019-02-05T11:18:13.094Z,71.3
2019-02-05T11:19:13.282Z,71.4
2019-02-05T11:20:13.254Z,71.5
2019-02-05T11:21:13.258Z,71.6
2019-02-05T11:22:13.236Z,71.9
2019-02-05T11:23:13.208Z,72
2019-02-05T11:24:13.928Z,71.9
2019-02-05T11:25:13.903Z,71.9
2019-02-05T11:26:13.916Z,72
2019-02-05T11:27:14.886Z,72.5
2019-02-05T11:28:15.812Z,72.7
2019-02-05T11:29:15.773Z,72.5
2019-02-05T11:30:21.392Z,72.7
2019-02-05T11:31:21.456Z,72.7
2019-02-05T11:32:21.432Z,72.5
2019-02-05T11:33:21.605Z,72.9
2019-02-05T11:34:22.094Z,71.1
2019-02-05T11:35:23.011Z,72.4
2019-02-05T11:36:23.920Z,72.1
2019-02-05T11:37:23.911Z,72.7
2019-02-05T11:38:23.897Z,73.1
2019-02-05T11:39:23.893Z,72.9
2019-02-05T11:40:23.898Z,71.8
2019-02-05T11:41:23.867Z,71.9
2019-02-05T11:42:23.874Z,72.4
2019-02-05T11:43:23.906Z,72.4
2019-02-05T11:44:24.532Z,72.4
2019-02-05T11:45:24.559Z,72.6
2019-02-05T11:46:24.600Z,72.9
2019-02-05T11:47:24.612Z,72.7
2019-02-05T11:48:24.621Z,73.1
2019-02-05T11:49:24.599Z,73.1
2019-02-05T11:50:25.566Z,73.1
2019-02-05T11:51:26.501Z,73.5
2019-02-05T11:52:26.502Z,73.5
2019-02-05T11:53:26.510Z,73.7
2019-02-05T11:54:26.975Z,73.8
2019-02-05T11:55:26.998Z,74.3
2019-02-05T11:56:27.031Z,74.3
2019-02-05T11:57:27.005Z,73.9
2019-02-05T11:58:27.051Z,73.3
2019-02-05T11:59:27.248Z,73.5
2019-02-05T12:00:33.769Z,74
2019-02-05T12:01:39.960Z,73.5
2019-02-05T12:02:39.985Z,74.1
2019-02-05T12:03:39.973Z,73.8
2019-02-05T12:04:40.473Z,73.7
2019-02-05T12:05:40.477Z,74
2019-02-05T12:06:41.130Z,74.1
2019-02-05T12:07:41.176Z,74.3
2019-02-05T12:08:41.159Z,74.3
2019-02-05T12:09:41.154Z,74.1
2019-02-05T12:10:41.153Z,73.8
2019-02-05T12:11:41.149Z,74.3
2019-02-05T12:12:41.257Z,74.5
2019-02-05T12:13:41.267Z,74.8
2019-02-05T12:14:42.722Z,74.9
2019-02-05T12:15:43.566Z,74.9
2019-02-05T12:16:43.601Z,75.3
2019-02-05T12:17:43.600Z,75.1
2019-02-05T12:18:43.651Z,75
2019-02-05T12:19:43.655Z,75.2
2019-02-05T12:20:43.675Z,75.4
2019-02-05T12:21:44.666Z,75.4
2019-02-05T12:22:45.170Z,75.7
2019-02-05T12:23:45.217Z,75.3
2019-02-05T12:24:45.717Z,75.6
2019-02-05T12:25:45.816Z,76.3
2019-02-05T12:26:46.044Z,75.2
2019-02-05T12:27:46.033Z,75.4
2019-02-05T12:28:46.013Z,75.4
2019-02-05T12:29:46.726Z,74.9
2019-02-05T12:30:47.347Z,75.4
2019-02-05T12:31:47.365Z,74.9
2019-02-05T12:32:47.352Z,74.3
2019-02-05T12:33:47.457Z,74.5
2019-02-05T12:34:47.901Z,74.8
2019-02-05T12:35:47.883Z,74.6
2019-02-05T12:36:48.147Z,74.1
2019-02-05T12:37:48.117Z,74
2019-02-05T12:38:48.073Z,74.4
2019-02-05T12:39:48.155Z,74.3
2019-02-05T12:40:48.127Z,74.6
2019-02-05T12:41:48.105Z,74.9
2019-02-05T12:42:48.190Z,75.3
2019-02-05T12:43:48.140Z,75
2019-02-05T12:44:49.401Z,75
2019-02-05T12:45:50.045Z,75.4
2019-02-05T12:46:50.035Z,75.5
2019-02-05T12:47:50.026Z,75.8
2019-02-05T12:48:50.003Z,75.7
2019-02-05T12:49:50.007Z,75.8
2019-02-05T12:50:49.966Z,75.3
2019-02-05T12:51:49.933Z,75.4
2019-02-05T12:52:49.883Z,75.9
2019-02-05T12:53:50.496Z,75.9
2019-02-05T12:54:51.079Z,76
2019-02-05T12:55:51.059Z,76
2019-02-05T12:56:51.071Z,76.2
2019-02-05T12:57:51.013Z,76.3
2019-02-05T12:58:50.963Z,76.2
2019-02-05T12:59:51.571Z,76.1
2019-02-05T13:01:01.903Z,76.4
2019-02-05T13:02:01.855Z,76.4
2019-02-05T13:03:01.808Z,76.3
2019-02-05T13:04:01.760Z,75.6
2019-02-05T13:05:02.220Z,75.2
2019-02-05T13:06:02.150Z,75
2019-02-05T13:07:02.049Z,75.5
2019-02-05T13:08:05.059Z,75.3
2019-02-05T13:09:05.626Z,75.5
2019-02-05T13:10:06.488Z,75.3
2019-02-05T13:11:07.223Z,75.5
2019-02-05T13:12:07.126Z,75.8
2019-02-05T13:13:07.075Z,76.1
2019-02-05T13:14:07.010Z,76.2
2019-02-05T13:15:07.429Z,76.3
2019-02-05T13:16:07.475Z,76.4
2019-02-05T13:17:07.380Z,76.6
2019-02-05T13:18:07.332Z,76.7
2019-02-05T13:19:07.924Z,76.8
2019-02-05T13:20:07.887Z,76.5
2019-02-05T13:21:07.835Z,76.4
2019-02-05T13:22:07.798Z,76.5
2019-02-05T13:23:07.853Z,76.5
2019-02-05T13:24:07.789Z,76.5
2019-02-05T13:25:08.290Z,76.3
2019-02-05T13:26:08.235Z,76.5
2019-02-05T13:27:08.190Z,76.6
2019-02-05T13:28:08.130Z,76.5
2019-02-05T13:29:08.200Z,76.3
2019-02-05T13:30:08.160Z,76.5
2019-02-05T13:31:09.071Z,76.2
2019-02-05T13:32:09.051Z,76.2
2019-02-05T13:33:08.998Z,75.7
2019-02-05T13:34:09.045Z,75.4
2019-02-05T13:52:19.224Z,76.3
2019-02-05T13:53:19.170Z,77.5
2019-02-05T13:54:19.092Z,76.9
2019-02-05T13:55:19.102Z,77
2019-02-05T13:56:19.034Z,76.9
2019-02-05T13:57:18.981Z,76.6
2019-02-05T13:58:19.955Z,76.5
2019-02-05T13:59:20.988Z,76.5
2019-02-05T14:00:20.942Z,76.3
2019-02-05T14:01:21.084Z,76.5
2019-02-05T14:02:21.436Z,76.2
2019-02-05T14:03:21.354Z,76.4
2019-02-05T14:04:21.308Z,76.6
2019-02-05T14:05:21.256Z,76.8
2019-02-05T14:06:21.247Z,77
2019-02-05T14:07:21.655Z,77.1
2019-02-05T14:08:21.586Z,77
2019-02-05T14:09:21.569Z,77.1
2019-02-05T14:10:21.623Z,77
2019-02-05T14:11:21.592Z,77.3
2019-02-05T14:12:22.893Z,77.2
2019-02-05T14:13:23.052Z,77.2
2019-02-05T14:14:22.991Z,77.4
2019-02-05T14:15:22.921Z,77.2
2019-02-05T14:16:22.884Z,76.3
2019-02-05T14:17:22.834Z,75.9
2019-02-05T14:21:24.120Z,74.9
2019-02-05T14:22:25.284Z,75.2
2019-02-05T14:23:25.266Z,75.9
2019-02-05T14:24:25.201Z,75.8
2019-02-05T14:25:25.131Z,75.6
2019-02-05T14:26:25.084Z,76
2019-02-05T14:27:25.022Z,76.1
2019-02-05T14:28:24.933Z,76.2
2019-02-05T14:29:25.521Z,76.4